createdAt,value
2017-11-30T08:51:25.000Z,979.85
2017-11-30T08:51:51.000Z,979.80
2017-11-30T08:52:52.000Z,979.81
2017-11-30T08:53:52.000Z,979.80
2017-11-30T08:54:52.000Z,979.82
2017-11-30T08:55:52.000Z,979.76
2017-11-30T08:56:53.000Z,979.73
2017-11-30T08:57:52.000Z,979.76
2017-11-30T08:58:52.000Z,979.78
2017-11-30T08:59:53.000Z,979.76
2017-11-30T09:00:53.000Z,979.74
2017-11-30T09:01:53.000Z,979.83
2017-11-30T09:02:53.000Z,979.81
2017-11-30T09:03:51.000Z,979.70
2017-11-30T09:04:51.000Z,979.81
2017-11-30T09:05:51.000Z,979.75
2017-11-30T09:06:51.000Z,979.77
2017-11-30T09:07:51.000Z,979.82
2017-11-30T09:08:51.000Z,979.75
2017-11-30T09:09:51.000Z,979.84
2017-11-30T09:10:51.000Z,979.80
2017-11-30T09:11:51.000Z,979.81
2017-11-30T09:12:53.000Z,979.87
2017-11-30T09:13:53.000Z,979.85
2017-11-30T09:14:53.000Z,979.84
2017-11-30T09:15:53.000Z,979.80
2017-11-30T09:16:53.000Z,979.78
2017-11-30T09:17:53.000Z,979.84
2017-11-30T09:18:53.000Z,979.81
2017-11-30T09:19:53.000Z,979.85
2017-11-30T09:20:51.000Z,979.85
2017-11-30T09:21:51.000Z,979.78
2017-11-30T09:22:51.000Z,979.82
2017-11-30T09:23:51.000Z,979.82
2017-11-30T09:24:51.000Z,979.83
2017-11-30T09:25:51.000Z,979.80
2017-11-30T09:26:51.000Z,979.85
2017-11-30T09:27:53.000Z,979.83
2017-11-30T09:28:52.000Z,979.83
2017-11-30T09:29:53.000Z,979.85
2017-11-30T09:30:52.000Z,979.81
2017-11-30T09:31:53.000Z,979.81
2017-11-30T09:32:53.000Z,979.85
2017-11-30T09:33:52.000Z,979.84
2017-11-30T09:34:52.000Z,979.83
2017-11-30T09:35:53.000Z,979.84
2017-11-30T09:36:53.000Z,979.86
2017-11-30T09:37:53.000Z,979.89
2017-11-30T09:38:51.000Z,979.87
2017-11-30T09:39:53.000Z,979.95
2017-11-30T09:40:51.000Z,979.83
2017-11-30T09:41:51.000Z,979.87
2017-11-30T09:42:51.000Z,979.83
2017-11-30T09:43:51.000Z,979.93
2017-11-30T09:44:53.000Z,979.94
2017-11-30T09:45:52.000Z,979.84
2017-11-30T09:46:53.000Z,979.83
2017-11-30T09:47:52.000Z,979.87
2017-11-30T09:48:53.000Z,979.84
2017-11-30T09:49:53.000Z,979.85
2017-11-30T09:50:53.000Z,979.81
2017-11-30T09:51:53.000Z,979.79
2017-11-30T09:52:53.000Z,979.75
2017-11-30T09:53:53.000Z,979.78
2017-11-30T09:54:51.000Z,979.88
2017-11-30T09:55:51.000Z,979.85
2017-11-30T09:56:51.000Z,979.79
2017-11-30T09:57:51.000Z,979.76
2017-11-30T09:58:51.000Z,979.82
2017-11-30T09:59:51.000Z,979.81
2017-11-30T10:00:51.000Z,979.84
2017-11-30T10:01:51.000Z,979.87
2017-11-30T10:02:51.000Z,979.79
2017-11-30T10:03:51.000Z,979.79
2017-11-30T10:04:53.000Z,979.73
2017-11-30T10:05:53.000Z,979.73
2017-11-30T10:06:53.000Z,979.82
2017-11-30T10:07:53.000Z,979.73
2017-11-30T10:08:53.000Z,979.77
2017-11-30T10:09:53.000Z,979.76
2017-11-30T10:10:53.000Z,979.75
2017-11-30T10:11:53.000Z,979.76
2017-11-30T10:12:53.000Z,979.69
2017-11-30T10:13:51.000Z,979.71
2017-11-30T10:14:51.000Z,979.73
2017-11-30T10:15:51.000Z,979.69
2017-11-30T10:16:51.000Z,979.73
2017-11-30T10:17:51.000Z,979.69
2017-11-30T10:18:51.000Z,979.70
2017-11-30T10:19:51.000Z,979.63
2017-11-30T10:20:51.000Z,979.57
2017-11-30T10:21:51.000Z,979.60
2017-11-30T10:22:51.000Z,979.62
2017-11-30T10:23:54.000Z,979.63
2017-11-30T10:24:51.000Z,979.63
2017-11-30T10:25:53.000Z,979.66
2017-11-30T10:26:53.000Z,979.57
2017-11-30T10:27:53.000Z,972.84
2017-11-30T10:28:53.000Z,979.54
2017-11-30T10:29:53.000Z,979.64
2017-11-30T10:30:53.000Z,979.55
2017-11-30T10:31:51.000Z,979.48
2017-11-30T10:32:51.000Z,979.49
2017-11-30T10:33:51.000Z,979.47
2017-11-30T10:34:51.000Z,979.44
2017-11-30T10:35:51.000Z,979.45
2017-11-30T10:36:51.000Z,979.44
2017-11-30T10:37:51.000Z,979.46
2017-11-30T10:38:51.000Z,979.40
2017-11-30T10:39:53.000Z,979.49
2017-11-30T10:40:53.000Z,979.48
2017-11-30T10:41:53.000Z,979.45
2017-11-30T10:42:53.000Z,979.46
2017-11-30T10:43:53.000Z,979.46
2017-11-30T10:44:53.000Z,979.50
2017-11-30T10:45:53.000Z,979.46
2017-11-30T10:46:53.000Z,979.47
2017-11-30T10:47:53.000Z,979.48
2017-11-30T10:48:51.000Z,979.48
2017-11-30T10:49:51.000Z,979.42
2017-11-30T10:50:51.000Z,979.49
2017-11-30T10:51:51.000Z,979.51
2017-11-30T10:52:51.000Z,979.55
2017-11-30T10:53:51.000Z,979.52
2017-11-30T10:54:51.000Z,979.52
2017-11-30T10:55:51.000Z,979.49
2017-11-30T10:56:53.000Z,979.50
2017-11-30T10:57:53.000Z,979.49
2017-11-30T10:58:53.000Z,979.48
2017-11-30T10:59:53.000Z,979.49
2017-11-30T11:00:53.000Z,979.49
2017-11-30T11:01:53.000Z,979.53
2017-11-30T11:02:53.000Z,979.49
2017-11-30T11:03:53.000Z,979.53
2017-11-30T11:04:53.000Z,979.57
2017-11-30T11:05:53.000Z,979.59
2017-11-30T11:06:51.000Z,979.57
2017-11-30T11:07:51.000Z,979.54
2017-11-30T11:08:51.000Z,979.58
2017-11-30T11:09:51.000Z,979.45
2017-11-30T11:10:51.000Z,979.53
2017-11-30T11:11:51.000Z,979.55
2017-11-30T11:12:51.000Z,979.62
2017-11-30T11:13:51.000Z,979.56
2017-11-30T11:14:53.000Z,979.51
2017-11-30T11:15:53.000Z,979.60
2017-11-30T11:16:53.000Z,979.57
2017-11-30T11:17:53.000Z,979.53
2017-11-30T11:18:53.000Z,979.49
2017-11-30T11:19:53.000Z,979.50
2017-11-30T11:20:53.000Z,979.49
2017-11-30T11:21:53.000Z,979.49
2017-11-30T11:22:51.000Z,979.49
2017-11-30T11:23:53.000Z,979.54
2017-11-30T11:24:51.000Z,979.56
2017-11-30T11:25:51.000Z,979.54
2017-11-30T11:26:51.000Z,979.54
2017-11-30T11:27:51.000Z,979.55
2017-11-30T11:28:51.000Z,979.57
2017-11-30T11:29:51.000Z,979.47
2017-11-30T11:30:51.000Z,979.48
2017-11-30T11:31:53.000Z,979.52
2017-11-30T11:32:53.000Z,979.43
2017-11-30T11:33:53.000Z,979.44
2017-11-30T11:34:53.000Z,979.36
2017-11-30T11:35:53.000Z,979.36
2017-11-30T11:36:53.000Z,979.33
2017-11-30T11:37:53.000Z,979.37
2017-11-30T11:38:53.000Z,979.37
2017-11-30T11:39:53.000Z,979.37
2017-11-30T11:40:53.000Z,979.39
2017-11-30T11:41:51.000Z,979.34
2017-11-30T11:42:53.000Z,979.28
2017-11-30T11:43:51.000Z,979.34
2017-11-30T11:44:51.000Z,979.36
2017-11-30T11:45:52.000Z,979.36
2017-11-30T11:46:51.000Z,979.38
2017-11-30T11:47:51.000Z,979.39
2017-11-30T11:48:51.000Z,979.39
2017-11-30T11:49:53.000Z,979.37
2017-11-30T11:50:53.000Z,979.38
2017-11-30T11:51:53.000Z,979.38
2017-11-30T11:52:53.000Z,979.34
2017-11-30T11:53:53.000Z,979.27
2017-11-30T11:54:53.000Z,979.26
2017-11-30T11:55:53.000Z,979.30
2017-11-30T11:56:53.000Z,979.28
2017-11-30T11:57:53.000Z,979.25
2017-11-30T11:58:51.000Z,979.29
2017-11-30T11:59:51.000Z,979.17
2017-11-30T12:00:51.000Z,979.27
2017-11-30T12:01:51.000Z,979.31
2017-11-30T12:02:51.000Z,979.35
2017-11-30T12:03:51.000Z,979.28
2017-11-30T12:04:51.000Z,979.26
2017-11-30T12:05:51.000Z,979.35
2017-11-30T12:06:53.000Z,979.32
2017-11-30T12:07:53.000Z,979.27
2017-11-30T12:08:53.000Z,979.33
2017-11-30T12:09:53.000Z,979.35
2017-11-30T12:10:53.000Z,979.29
2017-11-30T12:11:53.000Z,979.31
2017-11-30T12:12:53.000Z,979.31
2017-11-30T12:13:53.000Z,979.35
2017-11-30T12:14:53.000Z,979.31
2017-11-30T12:15:53.000Z,979.32
2017-11-30T12:16:53.000Z,979.31
2017-11-30T12:17:51.000Z,979.32
2017-11-30T12:18:51.000Z,979.33
2017-11-30T12:19:51.000Z,979.34
2017-11-30T12:20:51.000Z,979.26
2017-11-30T12:21:51.000Z,979.26
2017-11-30T12:22:51.000Z,979.28
2017-11-30T12:23:51.000Z,979.24
2017-11-30T12:24:53.000Z,979.28
2017-11-30T12:25:53.000Z,979.29
2017-11-30T12:26:53.000Z,979.26
2017-11-30T12:27:53.000Z,979.33
2017-11-30T12:28:53.000Z,979.25
2017-11-30T12:29:53.000Z,979.27
2017-11-30T12:30:53.000Z,979.23
2017-11-30T12:31:53.000Z,979.26
2017-11-30T12:32:53.000Z,979.25
2017-11-30T12:33:53.000Z,979.29
2017-11-30T12:34:51.000Z,979.31
2017-11-30T12:35:51.000Z,979.14
2017-11-30T12:36:51.000Z,979.22
2017-11-30T12:37:51.000Z,979.13
2017-11-30T12:38:52.000Z,979.22
2017-11-30T12:39:51.000Z,979.21
2017-11-30T12:40:52.000Z,979.20
2017-11-30T12:41:51.000Z,979.12
2017-11-30T12:42:53.000Z,979.15
2017-11-30T12:43:53.000Z,979.11
2017-11-30T12:44:53.000Z,979.16
2017-11-30T12:45:53.000Z,979.06
2017-11-30T12:46:53.000Z,979.17
2017-11-30T12:47:54.000Z,979.13
2017-11-30T12:48:53.000Z,979.12
2017-11-30T12:49:53.000Z,979.14
2017-11-30T12:50:53.000Z,979.11
2017-11-30T12:51:52.000Z,979.13
2017-11-30T12:52:52.000Z,979.22
2017-11-30T12:53:52.000Z,979.15
2017-11-30T12:54:51.000Z,979.15
2017-11-30T12:55:52.000Z,979.12
2017-11-30T12:56:52.000Z,979.07
2017-11-30T12:57:52.000Z,979.17
2017-11-30T12:58:52.000Z,979.12
2017-11-30T12:59:52.000Z,979.15
2017-11-30T13:00:53.000Z,979.11
2017-11-30T13:01:54.000Z,979.11
2017-11-30T13:02:53.000Z,979.15
2017-11-30T13:03:53.000Z,979.17
2017-11-30T13:04:53.000Z,979.17
2017-11-30T13:05:53.000Z,979.07
2017-11-30T13:06:54.000Z,979.11
2017-11-30T13:07:54.000Z,979.12
2017-11-30T13:08:54.000Z,979.20
2017-11-30T13:09:53.000Z,979.10
2017-11-30T13:10:53.000Z,979.15
2017-11-30T13:11:54.000Z,979.14
2017-11-30T13:12:52.000Z,979.08
2017-11-30T13:13:52.000Z,979.12
2017-11-30T13:14:52.000Z,979.10
2017-11-30T13:15:52.000Z,979.09
2017-11-30T13:16:52.000Z,979.11
2017-11-30T13:17:52.000Z,979.14
2017-11-30T13:18:53.000Z,979.08
2017-11-30T13:19:53.000Z,979.10
2017-11-30T13:20:53.000Z,979.07
2017-11-30T13:21:53.000Z,979.12
2017-11-30T13:22:53.000Z,979.08
2017-11-30T13:23:53.000Z,979.07
2017-11-30T13:24:53.000Z,979.12
2017-11-30T13:25:53.000Z,979.09
2017-11-30T13:26:53.000Z,979.11
2017-11-30T13:27:53.000Z,979.12
2017-11-30T13:28:52.000Z,979.15
2017-11-30T13:29:53.000Z,979.12
2017-11-30T13:30:52.000Z,979.05
2017-11-30T13:31:52.000Z,979.07
2017-11-30T13:32:52.000Z,979.06
2017-11-30T13:33:52.000Z,979.06
2017-11-30T13:34:52.000Z,979.07
2017-11-30T13:35:52.000Z,979.08
2017-11-30T13:36:52.000Z,979.09
2017-11-30T13:37:53.000Z,979.06
2017-11-30T13:38:53.000Z,979.08
2017-11-30T13:39:53.000Z,979.10
2017-11-30T13:40:53.000Z,979.09
2017-11-30T13:41:53.000Z,979.12
2017-11-30T13:42:53.000Z,979.10
2017-11-30T13:43:53.000Z,979.05
2017-11-30T13:44:53.000Z,979.12
2017-11-30T13:45:52.000Z,979.04
2017-11-30T13:46:52.000Z,979.07
2017-11-30T13:47:52.000Z,979.05
2017-11-30T13:48:52.000Z,979.05
2017-11-30T13:49:52.000Z,979.09
2017-11-30T13:50:52.000Z,979.16
2017-11-30T13:51:52.000Z,979.10
2017-11-30T13:52:52.000Z,979.13
2017-11-30T13:53:53.000Z,979.04
2017-11-30T13:54:53.000Z,979.16
2017-11-30T13:55:53.000Z,979.16
2017-11-30T13:56:53.000Z,979.16
2017-11-30T13:57:53.000Z,979.17
2017-11-30T13:58:53.000Z,979.16
2017-11-30T13:59:53.000Z,979.11
2017-11-30T14:00:53.000Z,979.20
2017-11-30T14:01:53.000Z,979.13
2017-11-30T14:02:53.000Z,979.22
2017-11-30T14:03:53.000Z,979.22
2017-11-30T14:04:52.000Z,979.14
2017-11-30T14:05:52.000Z,979.17
2017-11-30T14:06:52.000Z,979.16
2017-11-30T14:07:53.000Z,979.23
2017-11-30T14:08:52.000Z,979.15
2017-11-30T14:09:52.000Z,979.09
2017-11-30T14:10:52.000Z,979.19
2017-11-30T14:11:52.000Z,979.13
2017-11-30T14:12:53.000Z,979.13
2017-11-30T14:13:53.000Z,979.11
2017-11-30T14:14:53.000Z,979.02
2017-11-30T14:15:53.000Z,979.16
2017-11-30T14:16:53.000Z,979.20
2017-11-30T14:17:53.000Z,979.15
2017-11-30T14:18:54.000Z,979.10
2017-11-30T14:19:53.000Z,979.19
2017-11-30T14:20:54.000Z,979.16
2017-11-30T14:21:53.000Z,979.16
2017-11-30T14:22:52.000Z,979.14
2017-11-30T14:23:52.000Z,979.11
2017-11-30T14:24:52.000Z,979.19
2017-11-30T14:25:52.000Z,979.17
2017-11-30T14:26:52.000Z,979.20
2017-11-30T14:27:52.000Z,979.23
2017-11-30T14:28:52.000Z,979.22
2017-11-30T14:29:52.000Z,979.25
2017-11-30T14:30:53.000Z,979.25
2017-11-30T14:31:53.000Z,979.25
2017-11-30T14:32:53.000Z,979.22
2017-11-30T14:33:53.000Z,979.16
2017-11-30T14:34:53.000Z,979.23
2017-11-30T14:35:53.000Z,979.24
2017-11-30T14:36:53.000Z,979.24
2017-11-30T14:37:53.000Z,979.27
2017-11-30T14:38:53.000Z,979.28
2017-11-30T14:39:52.000Z,979.24
2017-11-30T14:40:54.000Z,979.30
2017-11-30T14:41:52.000Z,979.26
2017-11-30T14:42:52.000Z,979.25
2017-11-30T14:43:52.000Z,979.26
2017-11-30T14:44:52.000Z,979.36
2017-11-30T14:45:52.000Z,979.30
2017-11-30T14:46:52.000Z,979.27
2017-11-30T14:47:53.000Z,979.25
2017-11-30T14:48:53.000Z,979.34
2017-11-30T14:49:53.000Z,979.26
2017-11-30T14:50:54.000Z,979.27
2017-11-30T14:51:53.000Z,979.32
2017-11-30T14:52:53.000Z,979.32
2017-11-30T14:53:53.000Z,979.39
2017-11-30T14:54:53.000Z,979.39
2017-11-30T14:55:53.000Z,979.38
2017-11-30T14:56:53.000Z,979.42
2017-11-30T14:57:53.000Z,979.34
2017-11-30T14:58:53.000Z,979.40
2017-11-30T14:59:52.000Z,979.41
2017-11-30T15:00:52.000Z,979.45
2017-11-30T15:01:52.000Z,979.42
2017-11-30T15:02:52.000Z,979.36
2017-11-30T15:03:52.000Z,979.44
2017-11-30T15:04:52.000Z,979.40
2017-11-30T15:05:52.000Z,979.51
2017-11-30T15:06:52.000Z,979.43
2017-11-30T15:07:53.000Z,979.44
2017-11-30T15:08:53.000Z,979.43
2017-11-30T15:09:53.000Z,979.51
2017-11-30T15:10:53.000Z,979.51
2017-11-30T15:11:53.000Z,979.51
2017-11-30T15:13:29.000Z,979.49
2017-11-30T15:13:53.000Z,979.46
2017-11-30T21:22:50.000Z,981.86
2017-11-30T21:22:52.000Z,981.84
2017-11-30T21:23:53.000Z,981.83
2017-11-30T21:24:53.000Z,981.80
2017-11-30T21:25:55.000Z,981.84
2017-11-30T21:26:54.000Z,981.91
2017-11-30T21:27:55.000Z,981.84
2017-11-30T21:28:54.000Z,981.86
2017-11-30T21:29:54.000Z,981.84
2017-11-30T21:30:54.000Z,981.80
2017-11-30T21:31:54.000Z,981.87
2017-11-30T21:32:54.000Z,981.84
2017-11-30T21:33:54.000Z,981.89
2017-11-30T21:34:54.000Z,981.85
2017-11-30T21:35:54.000Z,981.85
2017-11-30T21:36:54.000Z,981.92
2017-11-30T21:37:54.000Z,981.90
2017-11-30T21:38:53.000Z,981.86
2017-11-30T21:39:53.000Z,981.96
2017-11-30T21:40:53.000Z,981.97
2017-11-30T21:41:53.000Z,981.96
2017-11-30T21:42:53.000Z,981.94
2017-11-30T21:43:53.000Z,982.03
2017-11-30T21:44:53.000Z,982.00
2017-11-30T21:45:54.000Z,981.92
2017-11-30T21:46:54.000Z,981.96
2017-11-30T21:47:54.000Z,982.07
2017-11-30T21:48:54.000Z,982.04
2017-11-30T21:49:54.000Z,981.92
2017-11-30T21:50:54.000Z,982.03
2017-11-30T21:51:54.000Z,982.08
2017-11-30T21:52:54.000Z,982.00
2017-11-30T21:53:54.000Z,981.97
2017-11-30T21:54:54.000Z,982.07
2017-11-30T21:55:54.000Z,982.11
2017-11-30T21:56:54.000Z,982.11
2017-11-30T21:57:54.000Z,982.10
2017-11-30T21:58:54.000Z,982.04
2017-11-30T21:59:53.000Z,982.12
2017-11-30T22:00:53.000Z,982.13
2017-11-30T22:01:53.000Z,982.09
2017-11-30T22:02:53.000Z,982.08
2017-11-30T22:03:54.000Z,982.03
2017-11-30T22:04:54.000Z,982.12
2017-11-30T22:05:54.000Z,982.10
2017-11-30T22:06:54.000Z,982.16
2017-11-30T22:07:54.000Z,982.10
2017-11-30T22:08:54.000Z,982.17
2017-11-30T22:09:54.000Z,982.15
2017-11-30T22:10:54.000Z,982.13
2017-11-30T22:11:54.000Z,982.16
2017-11-30T22:12:54.000Z,982.17
2017-11-30T22:13:54.000Z,982.12
2017-11-30T22:14:54.000Z,982.15
2017-11-30T22:15:54.000Z,982.18
2017-11-30T22:16:54.000Z,982.23
2017-11-30T22:17:53.000Z,982.14
2017-11-30T22:18:53.000Z,982.19
2017-11-30T22:19:53.000Z,982.21
2017-11-30T22:20:53.000Z,982.24
2017-11-30T22:21:53.000Z,982.18
2017-11-30T22:22:53.000Z,982.27
2017-11-30T22:23:53.000Z,982.32
2017-11-30T22:24:53.000Z,982.27
2017-11-30T22:25:54.000Z,982.32
2017-11-30T22:26:55.000Z,982.31
2017-11-30T22:27:54.000Z,982.33
2017-11-30T22:28:55.000Z,982.37
2017-11-30T22:29:54.000Z,982.33
2017-11-30T22:30:54.000Z,982.39
2017-11-30T22:31:54.000Z,982.39
2017-11-30T22:32:54.000Z,982.36
2017-11-30T22:33:54.000Z,982.39
2017-11-30T22:34:55.000Z,982.30
2017-11-30T22:35:55.000Z,982.33
2017-11-30T22:36:53.000Z,982.41
2017-11-30T22:37:53.000Z,982.40
2017-11-30T22:38:53.000Z,982.37
2017-11-30T22:39:53.000Z,982.40
2017-11-30T22:40:53.000Z,982.39
2017-11-30T22:41:53.000Z,982.41
2017-11-30T22:42:53.000Z,982.39
2017-11-30T22:43:53.000Z,982.35
2017-11-30T22:44:55.000Z,982.41
2017-11-30T22:45:55.000Z,982.39
2017-11-30T22:46:55.000Z,982.40
2017-11-30T22:47:55.000Z,982.39
2017-11-30T22:48:55.000Z,982.40
2017-11-30T22:49:55.000Z,982.45
2017-11-30T22:50:55.000Z,982.37
2017-11-30T22:51:55.000Z,982.36
2017-11-30T22:52:55.000Z,982.45
2017-11-30T22:53:53.000Z,982.41
2017-11-30T22:54:53.000Z,982.46
2017-11-30T22:55:55.000Z,982.47
2017-11-30T22:56:53.000Z,982.42
2017-11-30T22:57:53.000Z,982.43
2017-11-30T22:58:53.000Z,982.51
2017-11-30T22:59:53.000Z,982.48
2017-11-30T23:00:53.000Z,982.52
2017-11-30T23:01:53.000Z,982.40
2017-11-30T23:06:42.000Z,982.44
2017-11-30T23:08:16.000Z,982.42
2017-11-30T23:09:56.000Z,982.48
2017-11-30T23:13:12.000Z,982.51
2017-11-30T23:15:25.000Z,982.55
2017-11-30T23:19:25.000Z,982.62
2017-11-30T23:20:42.000Z,982.58
2017-11-30T23:22:21.000Z,982.66
2017-11-30T23:23:49.000Z,982.55
2017-11-30T23:29:28.000Z,982.66
2017-11-30T23:31:49.000Z,982.62
2017-11-30T23:33:28.000Z,982.71
2017-11-30T23:38:03.000Z,982.75
2017-11-30T23:41:17.000Z,982.70
2017-11-30T23:44:43.000Z,982.84
2017-11-30T23:48:12.000Z,982.76
2017-11-30T23:50:43.000Z,982.74
2017-11-30T23:55:17.000Z,982.75
2017-11-30T23:57:49.000Z,982.77
